createdAt,value
2022-08-17T00:00:43.800Z,19.13
2022-08-17T00:03:04.469Z,19.08
2022-08-17T00:05:08.072Z,19.01
2022-08-17T00:07:11.104Z,19.00
2022-08-17T00:09:18.463Z,18.98
2022-08-17T00:11:26.625Z,18.94
2022-08-17T00:13:33.693Z,18.91
2022-08-17T00:15:36.385Z,18.86
2022-08-17T00:17:40.038Z,18.83
2022-08-17T00:19:42.650Z,18.81
2022-08-17T00:21:56.321Z,18.79
2022-08-17T00:24:11.476Z,18.78
2022-08-17T00:26:14.720Z,18.76
2022-08-17T00:28:38.939Z,18.70
2022-08-17T00:30:51.068Z,18.68
2022-08-17T00:33:14.005Z,18.64
2022-08-17T00:35:23.387Z,18.58
2022-08-17T00:37:26.035Z,18.60
2022-08-17T00:39:28.814Z,18.53
2022-08-17T00:41:31.515Z,18.56
2022-08-17T00:43:36.292Z,18.53
2022-08-17T00:45:39.270Z,18.52
2022-08-17T00:47:42.511Z,18.48
2022-08-17T00:49:45.089Z,18.46
2022-08-17T00:51:59.031Z,18.45
2022-08-17T00:54:12.916Z,18.41
2022-08-17T00:56:21.321Z,18.35
2022-08-17T00:58:33.003Z,18.32
2022-08-17T01:00:43.051Z,18.29
2022-08-17T01:02:47.938Z,18.21
2022-08-17T01:04:53.096Z,18.22
2022-08-17T01:06:58.576Z,18.19
2022-08-17T01:09:03.619Z,18.16
2022-08-17T01:11:08.598Z,18.10
2022-08-17T01:13:13.059Z,18.09
2022-08-17T01:15:16.530Z,18.04
2022-08-17T01:17:19.461Z,18.01
2022-08-17T01:19:25.855Z,17.95
2022-08-17T01:21:41.818Z,17.93
2022-08-17T01:23:44.414Z,17.92
2022-08-17T01:25:51.032Z,17.87
2022-08-17T01:27:53.705Z,17.87
2022-08-17T01:30:01.914Z,17.83
2022-08-17T01:32:07.470Z,17.82
2022-08-17T01:34:13.927Z,17.82
2022-08-17T01:36:16.591Z,17.81
2022-08-17T01:38:26.500Z,17.78
2022-08-17T01:40:35.787Z,17.74
2022-08-17T01:42:45.265Z,17.71
2022-08-17T01:44:48.392Z,17.72
2022-08-17T01:46:51.169Z,17.72
2022-08-17T01:48:56.513Z,17.71
2022-08-17T01:50:59.375Z,17.73
2022-08-17T01:53:12.069Z,17.72
2022-08-17T01:55:17.866Z,17.72
2022-08-17T01:57:20.462Z,17.72
2022-08-17T01:59:23.249Z,17.74
2022-08-17T02:01:28.997Z,17.78
2022-08-17T02:03:32.295Z,17.82
2022-08-17T02:05:35.931Z,17.84
2022-08-17T02:07:47.966Z,17.85
2022-08-17T02:10:20.053Z,17.83
2022-08-17T02:12:38.154Z,17.85
2022-08-17T02:14:46.883Z,17.84
2022-08-17T02:16:49.757Z,17.89
2022-08-17T02:18:52.429Z,17.87
2022-08-17T02:20:55.101Z,17.91
2022-08-17T02:23:02.677Z,17.95
2022-08-17T02:25:09.502Z,17.98
2022-08-17T02:27:13.530Z,18.02
2022-08-17T02:29:16.166Z,18.07
2022-08-17T02:31:18.726Z,18.12
2022-08-17T02:33:21.924Z,18.18
2022-08-17T02:35:24.577Z,18.23
2022-08-17T02:37:28.868Z,18.30
2022-08-17T02:39:31.653Z,18.35
2022-08-17T02:41:34.823Z,18.41
2022-08-17T02:43:37.564Z,18.46
2022-08-17T02:45:40.303Z,18.50
2022-08-17T02:47:44.348Z,18.54
2022-08-17T02:49:54.184Z,18.60
2022-08-17T02:51:59.162Z,18.61
2022-08-17T02:54:38.941Z,18.64
2022-08-17T02:56:24.448Z,18.64
2022-08-17T02:58:35.750Z,18.70
2022-08-17T03:00:42.506Z,18.71
2022-08-17T03:02:46.049Z,18.75
2022-08-17T03:04:48.789Z,18.75
2022-08-17T03:06:51.552Z,18.79
2022-08-17T03:08:54.794Z,18.79
2022-08-17T03:10:57.823Z,18.77
2022-08-17T03:13:00.739Z,18.70
2022-08-17T03:15:10.238Z,18.66
2022-08-17T03:17:17.331Z,18.64
2022-08-17T03:19:20.128Z,18.67
2022-08-17T03:21:22.682Z,18.67
2022-08-17T03:23:27.404Z,18.70
2022-08-17T03:25:36.623Z,18.69
2022-08-17T03:27:42.062Z,18.71
2022-08-17T03:29:47.277Z,18.75
2022-08-17T03:31:50.590Z,18.78
2022-08-17T03:33:53.268Z,18.83
2022-08-17T03:35:56.611Z,18.86
2022-08-17T03:38:00.406Z,18.85
2022-08-17T03:40:06.342Z,18.90
2022-08-17T03:42:31.472Z,18.99
2022-08-17T03:44:35.838Z,19.03
2022-08-17T03:46:57.058Z,19.08
2022-08-17T03:49:18.325Z,19.15
2022-08-17T03:51:42.545Z,19.20
2022-08-17T03:54:12.884Z,19.35
2022-08-17T03:56:34.181Z,19.45
2022-08-17T03:58:39.701Z,19.47
2022-08-17T04:00:45.511Z,19.55
2022-08-17T04:02:48.337Z,19.63
2022-08-17T04:04:52.566Z,19.76
2022-08-17T04:06:55.318Z,19.80
2022-08-17T04:08:57.941Z,19.97
2022-08-17T04:11:01.673Z,20.05
2022-08-17T04:13:04.721Z,20.12
2022-08-17T04:15:07.866Z,20.20
2022-08-17T04:17:10.451Z,20.29
2022-08-17T04:19:13.139Z,20.34
2022-08-17T04:21:15.868Z,20.42
2022-08-17T04:23:19.482Z,20.50
2022-08-17T04:25:22.550Z,20.54
2022-08-17T04:27:25.307Z,20.57
2022-08-17T04:29:27.932Z,20.60
2022-08-17T04:31:50.736Z,20.71
2022-08-17T04:33:54.798Z,20.78
2022-08-17T04:36:00.644Z,20.82
2022-08-17T04:38:03.376Z,20.94
2022-08-17T04:40:27.201Z,21.05
2022-08-17T04:42:30.288Z,21.08
2022-08-17T04:44:37.608Z,21.19
2022-08-17T04:46:40.938Z,21.31
2022-08-17T04:48:46.620Z,21.39
2022-08-17T04:50:50.819Z,21.48
2022-08-17T04:52:53.503Z,21.55
2022-08-17T04:54:56.105Z,21.62
2022-08-17T04:56:58.679Z,21.67
2022-08-17T04:59:05.412Z,21.73
2022-08-17T05:01:08.694Z,21.76
2022-08-17T05:03:11.440Z,21.81
2022-08-17T05:05:20.051Z,21.86
2022-08-17T05:07:26.236Z,21.84
2022-08-17T05:09:31.175Z,21.84
2022-08-17T05:11:34.207Z,21.88
2022-08-17T05:13:36.862Z,21.93
2022-08-17T05:15:44.712Z,21.98
2022-08-17T05:17:47.857Z,22.04
2022-08-17T05:19:52.099Z,22.13
2022-08-17T05:21:54.817Z,22.22
2022-08-17T05:23:58.878Z,22.32
2022-08-17T05:26:02.301Z,22.42
2022-08-17T05:28:06.084Z,22.50
2022-08-17T05:30:09.216Z,22.54
2022-08-17T05:32:38.089Z,22.55
2022-08-17T05:34:36.844Z,22.63
2022-08-17T05:36:44.149Z,22.71
2022-08-17T05:38:47.604Z,22.81
2022-08-17T05:40:50.971Z,22.89
2022-08-17T05:43:09.303Z,22.98
2022-08-17T05:45:12.655Z,23.05
2022-08-17T05:47:16.012Z,23.13
2022-08-17T05:49:27.453Z,23.23
2022-08-17T05:51:56.466Z,23.31
2022-08-17T05:54:37.215Z,23.41
2022-08-17T05:56:49.027Z,23.48
2022-08-17T05:59:20.482Z,23.57
2022-08-17T06:01:41.901Z,23.52
2022-08-17T06:04:10.991Z,23.58
2022-08-17T06:06:53.191Z,23.67
2022-08-17T06:09:34.021Z,23.79
2022-08-17T06:11:40.124Z,23.86
2022-08-17T06:13:58.664Z,23.96
2022-08-17T06:16:33.050Z,24.04
2022-08-17T06:19:04.869Z,24.10
2022-08-17T06:21:13.567Z,24.15
2022-08-17T06:23:32.846Z,24.27
2022-08-17T06:25:45.892Z,24.36
2022-08-17T06:27:54.044Z,24.44
2022-08-17T06:30:08.781Z,24.54
2022-08-17T06:32:13.034Z,24.59
2022-08-17T06:34:16.298Z,24.63
2022-08-17T06:36:33.264Z,24.70
2022-08-17T06:39:09.456Z,24.75
2022-08-17T06:41:23.142Z,24.83
2022-08-17T06:43:40.432Z,24.91
2022-08-17T06:45:49.607Z,24.97
2022-08-17T06:48:15.402Z,25.08
2022-08-17T06:50:27.312Z,25.14
2022-08-17T06:52:55.755Z,25.18
2022-08-17T06:55:07.281Z,25.25
2022-08-17T06:57:19.587Z,25.36
2022-08-17T06:59:55.684Z,25.44
2022-08-17T07:02:05.754Z,25.45
2022-08-17T07:04:31.429Z,25.52
2022-08-17T07:06:38.672Z,25.54
2022-08-17T07:09:05.774Z,25.59
2022-08-17T07:11:17.541Z,25.68
2022-08-17T07:13:51.799Z,25.67
2022-08-17T07:16:13.388Z,25.68
2022-08-17T07:18:16.201Z,25.68
2022-08-17T07:20:22.631Z,25.73
2022-08-17T07:22:58.158Z,25.82
2022-08-17T07:25:00.229Z,25.86
2022-08-17T07:27:37.312Z,25.91
2022-08-17T07:29:53.859Z,25.95
2022-08-17T07:31:56.527Z,26.01
2022-08-17T07:34:11.200Z,26.05
2022-08-17T07:36:29.982Z,26.09
2022-08-17T07:38:35.755Z,26.12
2022-08-17T07:40:39.690Z,26.19
2022-08-17T07:42:45.082Z,26.23
2022-08-17T07:44:54.124Z,26.22
2022-08-17T07:47:15.933Z,26.22
2022-08-17T07:49:33.017Z,26.26
2022-08-17T07:51:42.663Z,26.33
2022-08-17T07:53:45.688Z,26.41
2022-08-17T07:55:48.994Z,26.45
2022-08-17T07:57:57.596Z,26.54
2022-08-17T08:00:01.556Z,26.57
2022-08-17T08:02:31.863Z,26.64
2022-08-17T08:07:05.983Z,26.62
2022-08-17T08:09:08.625Z,26.67
2022-08-17T08:11:15.666Z,26.70
2022-08-17T08:13:21.264Z,26.72
2022-08-17T08:15:33.446Z,26.73
2022-08-17T08:17:47.849Z,26.78
2022-08-17T08:19:50.471Z,26.77
2022-08-17T08:22:05.763Z,26.78
2022-08-17T08:24:31.805Z,26.90
2022-08-17T08:26:46.558Z,26.93
2022-08-17T08:29:19.697Z,26.95
2022-08-17T08:31:45.165Z,27.07
2022-08-17T08:34:02.979Z,27.11
2022-08-17T08:36:13.580Z,27.21
2022-08-17T08:39:03.590Z,27.26
2022-08-17T08:41:31.004Z,27.26
2022-08-17T08:44:13.085Z,27.29
2022-08-17T08:46:46.077Z,27.33
2022-08-17T08:49:06.490Z,27.38
2022-08-17T08:51:39.020Z,27.40
2022-08-17T08:53:56.691Z,27.50
2022-08-17T08:56:34.609Z,27.54
2022-08-17T08:58:52.830Z,27.52
2022-08-17T09:00:58.711Z,27.52
2022-08-17T09:03:16.949Z,27.58
2022-08-17T09:05:39.885Z,27.56
2022-08-17T09:08:16.025Z,27.56
2022-08-17T09:10:27.362Z,27.61
2022-08-17T09:12:48.847Z,27.69
2022-08-17T09:15:03.697Z,27.77
2022-08-17T09:17:19.482Z,27.88
2022-08-17T09:19:30.630Z,28.00
2022-08-17T09:21:41.480Z,28.08
2022-08-17T09:24:05.952Z,28.12
2022-08-17T09:26:35.396Z,28.16
2022-08-17T09:28:42.794Z,28.12
2022-08-17T09:30:50.085Z,28.11
2022-08-17T09:33:07.074Z,28.05
2022-08-17T09:35:17.699Z,28.10
2022-08-17T09:37:37.930Z,28.07
2022-08-17T09:39:53.608Z,28.12
2022-08-17T09:42:01.945Z,28.13
2022-08-17T09:44:23.948Z,28.11
2022-08-17T09:46:46.031Z,28.05
2022-08-17T09:49:21.865Z,28.04
2022-08-17T09:51:37.104Z,28.07
2022-08-17T09:53:40.788Z,28.08
2022-08-17T09:55:55.962Z,28.10
2022-08-17T09:58:09.458Z,28.14
2022-08-17T10:00:27.702Z,28.21
2022-08-17T10:02:51.125Z,28.28
2022-08-17T10:05:13.894Z,28.35
2022-08-17T10:07:38.497Z,28.38
2022-08-17T10:09:59.847Z,28.36
2022-08-17T10:12:29.864Z,28.40
2022-08-17T10:14:53.518Z,28.47
2022-08-17T10:17:24.247Z,28.62
2022-08-17T10:19:32.993Z,28.73
2022-08-17T10:22:00.783Z,28.81
2022-08-17T10:25:21.739Z,28.92
2022-08-17T10:27:13.678Z,28.96
2022-08-17T10:29:23.121Z,29.05
2022-08-17T10:31:34.661Z,29.21
2022-08-17T10:34:09.637Z,29.30
2022-08-17T10:36:26.770Z,29.33
2022-08-17T10:39:16.844Z,29.39
2022-08-17T10:41:39.695Z,29.36
2022-08-17T10:44:38.414Z,29.37
2022-08-17T10:46:52.942Z,29.36
2022-08-17T10:49:18.206Z,29.55
2022-08-17T10:51:42.504Z,29.70
2022-08-17T10:53:49.583Z,29.82
2022-08-17T10:56:17.743Z,29.90
2022-08-17T10:58:24.694Z,29.90
2022-08-17T11:00:53.666Z,29.93
2022-08-17T11:02:58.289Z,30.05
2022-08-17T11:05:00.894Z,30.06
2022-08-17T11:07:21.645Z,30.06
2022-08-17T11:09:42.615Z,30.12
2022-08-17T11:11:50.234Z,30.23
2022-08-17T11:14:30.891Z,30.31
2022-08-17T11:16:48.301Z,30.41
2022-08-17T11:19:21.680Z,30.41
2022-08-17T11:22:04.292Z,30.39
2022-08-17T11:24:33.254Z,30.48
2022-08-17T11:26:39.182Z,30.58
2022-08-17T11:28:52.474Z,30.71
2022-08-17T11:30:59.704Z,30.86
2022-08-17T11:33:36.712Z,30.99
2022-08-17T11:35:51.541Z,31.08
2022-08-17T11:38:16.703Z,31.18
2022-08-17T11:40:41.610Z,31.31
2022-08-17T11:43:13.725Z,31.39
2022-08-17T11:45:32.414Z,31.52
2022-08-17T11:48:27.069Z,31.60
2022-08-17T11:51:13.291Z,31.68
2022-08-17T11:53:37.534Z,31.74
2022-08-17T11:55:44.440Z,31.86
2022-08-17T11:58:00.037Z,32.00
2022-08-17T12:00:11.969Z,32.10
2022-08-17T12:02:20.509Z,32.22
2022-08-17T12:04:32.272Z,32.22
2022-08-17T12:06:44.178Z,32.28
2022-08-17T12:09:16.053Z,32.39
2022-08-17T12:12:11.161Z,32.51
2022-08-17T12:14:16.975Z,32.63
2022-08-17T12:16:22.206Z,32.69
2022-08-17T12:18:29.515Z,32.88
2022-08-17T12:20:40.198Z,32.95
2022-08-17T12:23:09.695Z,33.13
2022-08-17T12:25:20.469Z,33.31
2022-08-17T12:27:46.125Z,33.25
2022-08-17T12:29:52.200Z,33.10
2022-08-17T12:31:55.420Z,33.27
2022-08-17T12:34:00.633Z,33.26
2022-08-17T12:36:07.705Z,33.06
2022-08-17T12:38:31.829Z,33.05
2022-08-17T12:40:36.393Z,33.27
2022-08-17T12:42:40.578Z,33.25
2022-08-17T12:44:49.629Z,33.20
2022-08-17T12:47:04.832Z,33.61
2022-08-17T12:49:14.534Z,33.73
2022-08-17T12:51:17.501Z,33.71
2022-08-17T12:53:30.112Z,33.69
2022-08-17T12:55:37.501Z,33.94
2022-08-17T12:57:44.319Z,34.34
2022-08-17T12:59:53.683Z,34.40
2022-08-17T13:01:56.517Z,34.39
2022-08-17T13:04:01.012Z,34.60
2022-08-17T13:06:09.884Z,34.61
2022-08-17T13:08:28.505Z,34.41
2022-08-17T13:10:34.341Z,34.90
2022-08-17T13:12:39.298Z,35.25
2022-08-17T13:14:51.085Z,35.02
2022-08-17T13:16:58.441Z,34.94
2022-08-17T13:19:15.446Z,34.64
2022-08-17T13:21:23.741Z,34.57
2022-08-17T13:23:29.508Z,34.72
2022-08-17T13:25:35.172Z,34.75
2022-08-17T13:27:42.929Z,34.87
2022-08-17T13:29:45.725Z,34.86
2022-08-17T13:32:13.776Z,34.94
2022-08-17T13:34:31.320Z,34.99
2022-08-17T13:36:36.207Z,35.09
2022-08-17T13:38:47.454Z,35.36
2022-08-17T13:40:53.417Z,35.47
2022-08-17T13:42:56.648Z,35.52
2022-08-17T13:45:00.453Z,35.56
2022-08-17T13:47:06.012Z,35.67
2022-08-17T13:49:12.225Z,35.52
2022-08-17T13:51:22.445Z,35.73
2022-08-17T13:53:36.357Z,35.93
2022-08-17T13:55:40.087Z,35.99
2022-08-17T13:57:48.316Z,36.05
2022-08-17T14:00:17.750Z,36.08
2022-08-17T14:02:21.461Z,36.22
2022-08-17T14:04:28.266Z,36.46
2022-08-17T14:07:03.978Z,36.43
2022-08-17T14:09:06.762Z,36.25
2022-08-17T14:11:09.460Z,35.98
2022-08-17T14:13:16.024Z,35.85
2022-08-17T14:15:21.833Z,35.84
2022-08-17T14:17:26.452Z,36.05
2022-08-17T14:19:29.264Z,36.52
2022-08-17T14:21:31.987Z,36.68
2022-08-17T14:23:35.493Z,36.51
2022-08-17T14:25:38.170Z,36.31
2022-08-17T14:27:41.347Z,36.21
2022-08-17T14:29:56.200Z,36.21
2022-08-17T14:32:04.517Z,35.97
2022-08-17T14:34:07.798Z,36.01
2022-08-17T14:36:10.571Z,35.85
2022-08-17T14:38:13.730Z,35.85
2022-08-17T14:40:20.576Z,35.82
2022-08-17T14:42:25.764Z,36.01
2022-08-17T14:44:28.555Z,36.12
2022-08-17T14:46:51.132Z,36.17
2022-08-17T14:48:57.183Z,36.10
2022-08-17T14:51:00.149Z,36.02
2022-08-17T14:53:04.761Z,36.15
2022-08-17T14:55:08.658Z,36.21
2022-08-17T14:57:22.790Z,36.26
2022-08-17T14:59:28.939Z,36.17
2022-08-17T15:01:31.968Z,35.89
2022-08-17T15:03:34.671Z,35.83
2022-08-17T15:05:39.533Z,35.53
2022-08-17T15:07:44.605Z,35.10
2022-08-17T15:09:47.336Z,34.49
2022-08-17T15:11:50.872Z,33.90
2022-08-17T15:13:53.466Z,33.43
2022-08-17T15:15:57.163Z,33.10
2022-08-17T15:18:00.122Z,32.82
2022-08-17T15:20:03.819Z,32.68
2022-08-17T15:22:07.157Z,32.42
2022-08-17T15:24:09.900Z,32.16
2022-08-17T15:26:12.716Z,32.02
2022-08-17T15:28:15.599Z,31.89
2022-08-17T15:30:18.631Z,31.68
2022-08-17T15:32:33.504Z,31.66
2022-08-17T15:34:36.730Z,31.49
2022-08-17T15:36:43.873Z,31.09
2022-08-17T15:38:52.536Z,30.75
2022-08-17T15:41:01.601Z,30.54
2022-08-17T15:43:11.514Z,30.50
2022-08-17T15:45:16.646Z,30.33
2022-08-17T15:47:19.214Z,30.11
2022-08-17T15:49:22.017Z,29.89
2022-08-17T15:51:28.776Z,29.81
2022-08-17T15:53:31.424Z,29.41
2022-08-17T15:55:35.369Z,29.33
2022-08-17T15:57:39.969Z,29.31
2022-08-17T15:59:43.562Z,29.28
2022-08-17T16:03:13.027Z,29.17
2022-08-17T16:04:30.428Z,29.03
2022-08-17T16:06:33.807Z,28.94
2022-08-17T16:08:37.155Z,28.84
2022-08-17T16:10:40.428Z,28.80
2022-08-17T16:12:47.924Z,28.68
2022-08-17T16:14:53.507Z,28.62
2022-08-17T16:16:56.074Z,28.57
2022-08-17T16:18:59.179Z,28.43
2022-08-17T16:21:23.538Z,28.30
2022-08-17T16:23:26.621Z,28.16
2022-08-17T16:25:52.305Z,28.09
2022-08-17T16:27:54.717Z,28.01
2022-08-17T16:29:57.413Z,27.95
2022-08-17T16:32:13.027Z,27.83
2022-08-17T16:34:18.682Z,27.70
2022-08-17T16:36:23.355Z,27.62
2022-08-17T16:38:25.946Z,27.51
2022-08-17T16:40:31.343Z,27.37
2022-08-17T16:42:40.476Z,27.24
2022-08-17T16:44:43.134Z,27.15
2022-08-17T16:46:47.107Z,27.08
2022-08-17T16:48:49.693Z,27.05
2022-08-17T16:51:03.025Z,26.96
2022-08-17T16:53:11.975Z,26.82
2022-08-17T16:55:17.131Z,26.83
2022-08-17T16:57:19.806Z,26.75
2022-08-17T16:59:38.723Z,26.61
2022-08-17T17:01:43.592Z,26.50
2022-08-17T17:03:54.125Z,26.50
2022-08-17T17:06:14.595Z,26.52
2022-08-17T17:08:23.210Z,26.48
2022-08-17T17:10:47.627Z,26.42
2022-08-17T17:13:02.090Z,26.34
2022-08-17T17:15:07.620Z,26.27
2022-08-17T17:17:25.444Z,26.19
2022-08-17T17:19:41.436Z,26.11
2022-08-17T17:22:19.204Z,26.03
2022-08-17T17:24:39.877Z,25.95
2022-08-17T17:26:50.124Z,25.82
2022-08-17T17:29:01.424Z,25.81
2022-08-17T17:31:14.146Z,25.74
2022-08-17T17:33:21.469Z,25.73
2022-08-17T17:35:31.995Z,25.69
2022-08-17T17:37:37.278Z,25.67
2022-08-17T17:39:49.205Z,25.62
2022-08-17T17:41:55.088Z,25.53
2022-08-17T17:44:12.262Z,25.45
2022-08-17T17:46:33.458Z,25.35
2022-08-17T17:48:36.861Z,25.26
2022-08-17T17:50:51.904Z,25.24
2022-08-17T17:53:07.779Z,25.17
2022-08-17T17:55:47.815Z,25.19
2022-08-17T17:57:56.074Z,25.15
2022-08-17T18:00:12.183Z,25.10
2022-08-17T18:02:55.187Z,25.02
2022-08-17T18:05:06.585Z,24.93
2022-08-17T18:07:15.497Z,24.79
2022-08-17T18:09:34.177Z,24.66
2022-08-17T18:11:45.734Z,24.57
2022-08-17T18:13:56.991Z,24.44
2022-08-17T18:16:04.202Z,24.35
2022-08-17T18:18:09.899Z,24.24
2022-08-17T18:20:14.349Z,24.21
2022-08-17T18:22:25.294Z,24.12
2022-08-17T18:24:37.800Z,24.09
2022-08-17T18:26:57.390Z,24.09
2022-08-17T18:29:31.903Z,24.07
2022-08-17T18:31:34.476Z,24.04
2022-08-17T18:33:39.601Z,23.98
2022-08-17T18:35:51.484Z,23.90
2022-08-17T18:38:20.666Z,23.81
2022-08-17T18:40:32.283Z,23.66
2022-08-17T18:42:36.516Z,23.52
2022-08-17T18:44:39.237Z,23.47
2022-08-17T18:46:42.405Z,23.39
2022-08-17T18:49:19.982Z,23.38
2022-08-17T18:51:40.525Z,23.26
2022-08-17T18:53:45.090Z,23.25
2022-08-17T18:55:47.725Z,23.22
2022-08-17T18:57:55.160Z,23.20
2022-08-17T18:59:58.840Z,23.21
2022-08-17T19:02:28.232Z,23.21
2022-08-17T19:05:02.442Z,23.13
2022-08-17T19:07:17.734Z,23.11
2022-08-17T19:09:33.352Z,23.09
2022-08-17T19:11:36.192Z,23.08
2022-08-17T19:13:52.173Z,23.06
2022-08-17T19:16:18.794Z,23.04
2022-08-17T19:18:30.022Z,22.95
2022-08-17T19:20:36.213Z,22.83
2022-08-17T19:23:12.566Z,22.63
2022-08-17T19:25:27.123Z,22.49
2022-08-17T19:27:46.306Z,22.42
2022-08-17T19:29:55.101Z,22.38
2022-08-17T19:31:58.882Z,22.40
2022-08-17T19:34:02.626Z,22.42
2022-08-17T19:36:18.822Z,22.36
2022-08-17T19:38:39.117Z,22.33
2022-08-17T19:41:03.199Z,22.25
2022-08-17T19:43:20.937Z,22.16
2022-08-17T19:45:58.510Z,22.11
2022-08-17T19:48:09.373Z,22.04
2022-08-17T19:50:25.947Z,21.97
2022-08-17T19:52:47.050Z,21.85
2022-08-17T19:55:05.128Z,21.76
2022-08-17T19:57:16.650Z,21.70
2022-08-17T19:59:49.106Z,21.68
2022-08-17T20:02:01.191Z,21.65
2022-08-17T20:04:14.558Z,21.67
2022-08-17T20:06:19.457Z,21.60
2022-08-17T20:08:33.555Z,21.62
2022-08-17T20:10:55.016Z,21.65
2022-08-17T20:13:04.484Z,21.62
2022-08-17T20:15:10.252Z,21.60
2022-08-17T20:17:13.036Z,21.51
2022-08-17T20:19:45.200Z,21.43
2022-08-17T20:22:04.885Z,21.37
2022-08-17T20:24:30.364Z,21.31
2022-08-17T20:26:58.121Z,21.20
2022-08-17T20:29:10.369Z,21.08
2022-08-17T20:31:46.878Z,21.00
2022-08-17T20:33:49.538Z,20.87
2022-08-17T20:36:16.151Z,20.81
2022-08-17T20:38:41.762Z,20.73
2022-08-17T20:40:57.510Z,20.69
2022-08-17T20:43:35.480Z,20.64
2022-08-17T20:46:10.498Z,20.54
2022-08-17T20:48:36.747Z,20.49
2022-08-17T20:50:45.471Z,20.48
2022-08-17T20:52:51.035Z,20.47
2022-08-17T20:54:57.409Z,20.48
2022-08-17T20:57:01.183Z,20.47
2022-08-17T20:59:04.096Z,20.46
2022-08-17T21:01:24.468Z,20.45
2022-08-17T21:03:47.570Z,20.43
2022-08-17T21:06:17.306Z,20.37
2022-08-17T21:08:30.751Z,20.37
2022-08-17T21:10:36.500Z,20.35
2022-08-17T21:12:48.134Z,20.36
2022-08-17T21:15:28.682Z,20.35
2022-08-17T21:17:43.727Z,20.30
2022-08-17T21:20:13.069Z,20.27
2022-08-17T21:22:46.560Z,20.22
2022-08-17T21:25:08.588Z,20.20
2022-08-17T21:27:26.125Z,20.17
2022-08-17T21:29:34.172Z,20.11
2022-08-17T21:31:47.982Z,20.01
2022-08-17T21:34:17.102Z,19.96
2022-08-17T21:36:26.620Z,19.88
2022-08-17T21:38:37.204Z,19.80
2022-08-17T21:40:44.993Z,19.72
2022-08-17T21:42:57.811Z,19.66
2022-08-17T21:45:25.398Z,19.54
2022-08-17T21:47:30.399Z,19.57
2022-08-17T21:49:37.825Z,19.60
2022-08-17T21:51:45.631Z,19.60
2022-08-17T21:53:52.124Z,19.59
2022-08-17T21:55:54.831Z,19.59
2022-08-17T21:58:13.884Z,19.56
2022-08-17T22:00:26.132Z,19.49
2022-08-17T22:02:35.638Z,19.43
2022-08-17T22:04:41.556Z,19.36
2022-08-17T22:06:57.441Z,19.29
2022-08-17T22:09:47.049Z,19.23
2022-08-17T22:12:02.032Z,19.18
2022-08-17T22:14:17.433Z,19.14
2022-08-17T22:16:29.306Z,19.07
2022-08-17T22:18:32.569Z,19.05
2022-08-17T22:20:35.411Z,19.05
2022-08-17T22:23:05.343Z,19.02
2022-08-17T22:25:19.967Z,18.97
2022-08-17T22:27:23.331Z,18.94
2022-08-17T22:29:58.355Z,18.89
2022-08-17T22:32:01.095Z,18.83
2022-08-17T22:34:03.664Z,18.82
2022-08-17T22:36:12.520Z,18.82
2022-08-17T22:38:21.281Z,18.80
2022-08-17T22:40:30.615Z,18.74
2022-08-17T22:42:44.038Z,18.72
2022-08-17T22:44:50.574Z,18.66
2022-08-17T22:46:58.919Z,18.62
2022-08-17T22:49:01.565Z,18.60
2022-08-17T22:51:13.383Z,18.54
2022-08-17T22:53:39.323Z,18.53
2022-08-17T22:56:09.575Z,18.49
2022-08-17T22:58:34.950Z,18.47
2022-08-17T23:00:44.933Z,18.47
2022-08-17T23:03:10.677Z,18.45
2022-08-17T23:05:13.370Z,18.42
2022-08-17T23:07:17.583Z,18.42
2022-08-17T23:09:20.143Z,18.40
2022-08-17T23:11:42.921Z,18.41
2022-08-17T23:13:56.669Z,18.40
2022-08-17T23:15:59.617Z,18.36
2022-08-17T23:18:05.318Z,18.32
2022-08-17T23:20:12.306Z,18.24
2022-08-17T23:22:14.855Z,18.19
2022-08-17T23:24:25.483Z,18.18
2022-08-17T23:26:29.746Z,18.15
2022-08-17T23:28:34.474Z,18.11
2022-08-17T23:30:43.937Z,18.06
2022-08-17T23:32:53.179Z,18.03
2022-08-17T23:34:59.400Z,17.98
2022-08-17T23:37:02.424Z,17.99
2022-08-17T23:39:06.617Z,17.98
2022-08-17T23:41:13.434Z,17.96
2022-08-17T23:43:23.709Z,17.94
2022-08-17T23:45:27.713Z,17.91
2022-08-17T23:47:30.310Z,17.87
2022-08-17T23:49:32.928Z,17.84
2022-08-17T23:51:42.755Z,17.79
2022-08-17T23:53:53.092Z,17.75
2022-08-17T23:56:09.137Z,17.67
2022-08-17T23:58:13.146Z,17.63
